»·PEaware :: CAL1750 RCTP-KVCV

CAL1750 :: RCTP-KVCV

FLIGHT INFORMATION

Flight Status: Arrived
Operator:
China Airlines
More flights by this operator :: More flights under this callsign
Pilot: Dominic N. (13332)
Aircraft: BOEING 747-400 (WINGLETS)
(B744)
More flights by this aircraft type
Origin: RCTP Chiang Kai Shek Intl
Taiwan
Destination: KVCV Socal Logistics
United States
More flights between these airports :: More routes between these airports
Route: + / ENI313026 AVE J6 PMD
File this flight plan on PilotEdge
Remarks: REG / B18208 PBN / A1B1C1D1L1O1S2 SEL / ACHM OPR / CAL DOF / 151010 RMK / ADSB TCAS NAV / RNVD1E2A1 CODE / 8991A3 PBN / A1B1C1D1L1O1S2 DOF / 150922 REG / B18653 EET / RJJJ0028 SEL / EHFK CODE / 8990A2 OPR / CAL RMK / ADSB TCAS
Altitude:
(Current/Filed)
39,000ft
Speed:
(Current/Filed)
0kts
Departed: 14-Oct-17 10:12 AM
Arrived: 14-Oct-17 11:22 AM
Distance/Time
Traveled:
5910nm/1:10
Distance/Time
To Go:
Arrived

Flight Plot

Page will automatically refresh every two minutes.

Flight plan parsing failed; only flown route is shown


Map Options




Map Legend


Flown Route
Filed Route
Departure Airport
Arrival Airport
Navaid (VOR, NDB)
Fix

Horizontal Profiles

Position Reports

Time Latitude Longitude Heading Altitude Ground
Speed
14-Oct-17 10:16 39.503545 -123.808439 138 39495ft 510kts
14-Oct-17 10:17 39.399027 -123.683548 138 39495ft 510kts
14-Oct-17 10:17 39.311561 -123.581667 140 39496ft 509kts
14-Oct-17 10:18 39.201628 -123.466319 142 39495ft 509kts
14-Oct-17 10:19 39.091457 -123.351643 142 39495ft 509kts
14-Oct-17 10:20 38.981340 -123.237429 142 39495ft 509kts
14-Oct-17 10:21 38.870956 -123.123399 142 39495ft 509kts
14-Oct-17 10:22 38.760605 -123.009867 142 39495ft 509kts
14-Oct-17 10:23 38.650181 -122.896725 142 39495ft 508kts
14-Oct-17 10:24 38.539568 -122.783847 142 39495ft 508kts
14-Oct-17 10:25 38.428888 -122.671359 142 39495ft 508kts
14-Oct-17 10:26 38.318054 -122.559167 142 39495ft 508kts
14-Oct-17 10:27 38.207289 -122.447494 142 39495ft 508kts
14-Oct-17 10:28 38.096244 -122.335986 142 39495ft 508kts
14-Oct-17 10:29 37.985240 -122.224961 143 39495ft 508kts
14-Oct-17 10:30 37.874047 -122.114187 143 39496ft 508kts
14-Oct-17 10:31 37.762849 -122.003844 143 39496ft 508kts
14-Oct-17 10:32 37.651578 -121.893861 143 39496ft 508kts
14-Oct-17 10:33 37.540116 -121.784120 143 39496ft 508kts
14-Oct-17 10:34 37.428584 -121.674736 143 39496ft 508kts
14-Oct-17 10:35 37.317011 -121.565734 143 39496ft 508kts
14-Oct-17 10:36 37.246963 -121.497516 143 39495ft 508kts
14-Oct-17 10:37 37.246963 -121.497516 143 39495ft 508kts
14-Oct-17 10:38 37.203739 -121.455503 143 39495ft 508kts
14-Oct-17 10:39 37.091985 -121.347165 143 39495ft 508kts
14-Oct-17 10:40 36.980153 -121.239166 143 39495ft 508kts
14-Oct-17 10:41 36.868272 -121.131529 143 39495ft 507kts
14-Oct-17 10:42 36.756340 -121.024249 143 39495ft 507kts
14-Oct-17 10:43 36.644389 -120.917351 143 39495ft 507kts
14-Oct-17 10:44 36.532032 -120.810466 143 39495ft 507kts
14-Oct-17 10:45 36.419719 -120.704017 143 39495ft 507kts
14-Oct-17 10:46 36.307617 -120.598156 143 39495ft 507kts
14-Oct-17 10:47 36.194980 -120.492175 144 39495ft 507kts
14-Oct-17 10:48 36.082537 -120.386752 144 39495ft 507kts
14-Oct-17 10:49 35.970093 -120.281689 144 39495ft 507kts
14-Oct-17 10:50 35.857991 -120.176002 143 39495ft 507kts
14-Oct-17 10:51 35.745358 -120.070819 144 39495ft 507kts
14-Oct-17 10:52 35.640139 -119.957310 126 39499ft 508kts
14-Oct-17 10:53 35.567361 -119.807218 119 39495ft 510kts
14-Oct-17 10:54 35.497847 -119.655317 119 39495ft 510kts
14-Oct-17 10:56 35.428580 -119.504224 119 39495ft 510kts
14-Oct-17 10:57 35.358517 -119.352869 119 39495ft 510kts
14-Oct-17 10:58 35.288241 -119.201979 119 39489ft 510kts
14-Oct-17 10:59 35.217640 -119.051067 120 36448ft 511kts
14-Oct-17 11:00 35.148302 -118.902842 120 33962ft 493kts
14-Oct-17 11:01 35.080837 -118.760123 121 31523ft 477kts
14-Oct-17 11:02 35.014606 -118.622021 125 29098ft 462kts
14-Oct-17 11:03 34.935237 -118.502881 133 26665ft 448kts
14-Oct-17 11:04 34.856168 -118.389106 133 24610ft 428kts
14-Oct-17 11:05 34.781593 -118.280244 133 21602ft 408kts
14-Oct-17 11:06 34.708624 -118.175045 132 18180ft 402kts
14-Oct-17 11:07 34.640885 -118.070061 112 14797ft 390kts
14-Oct-17 11:08 34.623461 -117.947102 99 14195ft 363kts
14-Oct-17 11:09 34.601714 -117.832748 102 12400ft 336kts
14-Oct-17 11:10 34.580264 -117.721661 102 10405ft 339kts
14-Oct-17 11:11 34.559831 -117.613912 102 9526ft 322kts
14-Oct-17 11:12 34.552913 -117.507016 88 9225ft 317kts
14-Oct-17 11:13 34.553963 -117.401638 89 8656ft 304kts
14-Oct-17 11:14 34.551919 -117.300316 90 7365ft 298kts
14-Oct-17 11:15 34.553313 -117.204415 71 7213ft 276kts
14-Oct-17 11:16 34.606609 -117.146541 7 7134ft 256kts
14-Oct-17 11:17 34.671020 -117.161982 332 7046ft 230kts
14-Oct-17 11:18 34.723913 -117.202275 316 6953ft 221kts
14-Oct-17 11:19 34.762042 -117.254467 300 6827ft 197kts
14-Oct-17 11:20 34.785802 -117.312239 283 6380ft 176kts
14-Oct-17 11:21 34.790137 -117.367194 237 5495ft 170kts
14-Oct-17 11:22 34.745749 -117.378350 194 4907ft 145kts
14-Oct-17 11:23 34.707690 -117.385625 195 4319ft 139kts
14-Oct-17 11:24 34.668537 -117.384656 197 3925ft 141kts
14-Oct-17 11:25 34.629352 -117.386180 193 3206ft 140kts
14-Oct-17 11:26 34.592508 -117.386411 185 2899ft 109kts
14-Oct-17 11:27 34.582898 -117.385483 116 2898ft 5kts
14-Oct-17 11:28 34.582807 -117.384117 52 2898ft 3kts
14-Oct-17 11:29 34.584356 -117.382193 45 2898ft 23kts
14-Oct-17 11:30 34.588802 -117.376911 43 2898ft 18kts
14-Oct-17 11:31 34.589715 -117.374432 133 2898ft 6kts
14-Oct-17 11:32 34.589190 -117.373773 133 2898ft 0kts

Navigation Log

Ident Type
Flight plan parsing failed, navigation log unavailable